Time;durP1;ratioP1;P1;durP2;ratioP2;P2;SDS_P1;SDS_P2;PMS_P1;PMS_P2;Temp;Humidity;BMP_temperature;BMP_pressure;BME280_temperature;BME280_humidity;BME280_pressure;Samples;Min_cycle;Max_cycle;Signal;HPM_P1;HPM_P2
2021/09/21 00:02:04;;;;;;;22.58;14.48;;;14.50;88.40;;;;;;4964078;28;20097;-59
2021/09/21 00:04:30;;;;;;;21.95;13.10;;;14.40;88.50;;;;;;4966908;28;20136;-60
2021/09/21 00:06:57;;;;;;;19.50;12.50;;;14.30;88.50;;;;;;4970638;28;20075;-60
2021/09/21 00:09:24;;;;;;;22.05;13.02;;;14.20;88.70;;;;;;4960950;28;20082;-59
2021/09/21 00:11:54;;;;;;;21.85;13.63;;;14.20;88.70;;;;;;4971061;28;20043;-59
2021/09/21 00:14:21;;;;;;;22.77;14.68;;;14.20;88.70;;;;;;4969285;28;20082;-59
2021/09/21 00:16:47;;;;;;;24.80;15.38;;;14.10;88.50;;;;;;4967822;28;20086;-59
2021/09/21 00:19:14;;;;;;;30.45;17.02;;;14.10;88.80;;;;;;4968144;28;20149;-60
2021/09/21 00:21:41;;;;;;;31.83;18.15;;;14.10;88.80;;;;;;4963439;28;20409;-61
2021/09/21 00:24:08;;;;;;;27.00;17.55;;;14.10;88.90;;;;;;4967679;28;20050;-61
2021/09/21 00:26:35;;;;;;;27.20;16.70;;;14.10;89.00;;;;;;4965141;28;20046;-60
2021/09/21 00:29:02;;;;;;;28.88;17.73;;;14.10;89.00;;;;;;4968652;28;20051;-60
2021/09/21 00:31:38;;;;;;;28.17;16.67;;;14.10;89.00;;;;;;4961074;28;20525;-60
2021/09/21 00:34:10;;;;;;;26.48;16.27;;;14.10;88.90;;;;;;4970342;28;20474;-60
2021/09/21 00:36:37;;;;;;;25.13;16.70;;;14.10;88.70;;;;;;4953043;28;20046;-60
2021/09/21 00:39:05;;;;;;;27.67;16.80;;;14.00;88.60;;;;;;4970255;28;20122;-60
2021/09/21 00:41:36;;;;;;;24.80;14.85;;;14.00;88.80;;;;;;4951856;28;20043;-61
2021/09/21 00:44:04;;;;;;;24.63;14.88;;;13.90;88.40;;;;;;4957880;28;20046;-60
2021/09/21 00:46:30;;;;;;;23.33;14.48;;;13.80;88.40;;;;;;4969539;28;20194;-60
2021/09/21 00:48:57;;;;;;;34.45;16.50;;;13.80;88.70;;;;;;4970284;28;20422;-60
2021/09/21 00:51:24;;;;;;;23.90;14.30;;;13.80;88.70;;;;;;4968624;28;20082;-60
2021/09/21 00:53:52;;;;;;;23.58;14.63;;;13.70;88.50;;;;;;4966498;28;20078;-60
2021/09/21 00:56:19;;;;;;;28.63;15.93;;;13.70;88.50;;;;;;4942552;28;20097;-60
2021/09/21 00:58:46;;;;;;;30.15;15.98;;;13.70;88.60;;;;;;4969707;28;20083;-60
2021/09/21 01:01:12;;;;;;;25.25;15.38;;;13.70;88.70;;;;;;4951992;28;20050;-60
2021/09/21 01:03:40;;;;;;;24.50;14.82;;;13.70;88.60;;;;;;4970246;28;20054;-60
2021/09/21 01:06:07;;;;;;;23.90;15.60;;;13.70;88.60;;;;;;4965388;28;20078;-60
2021/09/21 01:08:52;;;;;;;22.27;14.43;;;13.60;88.60;;;;;;4951302;28;20081;-60
2021/09/21 01:12:25;;;;;;;27.05;15.65;;;13.60;89.70;;;;;;4993812;28;20046;-60
2021/09/21 01:43:17;;;;;;;25.88;15.50;;;13.60;90.00;;;;;;4969025;28;20075;-59
2021/09/21 01:45:44;;;;;;;27.35;15.30;;;13.60;89.20;;;;;;4975720;28;20058;-60
2021/09/21 01:48:11;;;;;;;48.20;17.05;;;13.60;89.20;;;;;;4977158;28;20035;-59
2021/09/21 01:50:47;;;;;;;26.08;16.02;;;13.60;89.20;;;;;;4972047;28;20118;-60
2021/09/21 01:53:22;;;;;;;31.15;15.85;;;13.60;89.30;;;;;;4972245;28;20044;-59
2021/09/21 01:58:46;;;;;;;24.70;14.85;;;13.60;89.10;;;;;;4962521;28;20058;-60
2021/09/21 02:01:15;;;;;;;30.58;16.08;;;13.60;89.00;;;;;;4969128;28;20071;-60
2021/09/21 02:03:42;;;;;;;21.73;15.18;;;13.60;88.90;;;;;;4975749;28;20746;-59
2021/09/21 02:06:10;;;;;;;27.63;15.57;;;13.60;88.80;;;;;;4971390;28;20493;-59
2021/09/21 02:08:37;;;;;;;28.10;15.52;;;13.60;88.80;;;;;;4968299;28;20051;-59
2021/09/21 02:11:04;;;;;;;24.40;14.05;;;13.50;88.80;;;;;;4966800;28;20105;-60
2021/09/21 02:13:30;;;;;;;28.83;14.73;;;13.50;88.90;;;;;;4961724;28;20141;-59
2021/09/21 02:15:59;;;;;;;22.33;15.05;;;13.50;88.70;;;;;;4972960;28;20106;-60
2021/09/21 02:18:26;;;;;;;24.20;13.20;;;13.40;88.40;;;;;;4964832;28;20051;-59
2021/09/21 02:20:53;;;;;;;28.10;14.30;;;13.40;88.30;;;;;;4971809;28;20070;-59
2021/09/21 02:23:19;;;;;;;27.83;14.70;;;13.30;88.20;;;;;;4959814;28;20093;-59
2021/09/21 02:25:46;;;;;;;26.38;14.23;;;13.40;88.30;;;;;;4965466;28;20104;-61
2021/09/21 02:28:13;;;;;;;24.98;14.27;;;13.30;88.20;;;;;;4952703;28;20051;-61
2021/09/21 02:30:40;;;;;;;23.02;13.13;;;13.30;88.10;;;;;;4937976;28;20102;-60
2021/09/21 02:33:07;;;;;;;22.80;13.73;;;13.30;88.50;;;;;;4969862;28;20473;-60
2021/09/21 02:35:34;;;;;;;21.50;13.55;;;13.20;88.00;;;;;;4952708;28;20074;-59
2021/09/21 02:38:00;;;;;;;23.08;12.63;;;13.00;87.90;;;;;;4971165;28;20061;-60
2021/09/21 02:40:29;;;;;;;23.95;13.15;;;13.00;88.00;;;;;;4961310;28;20138;-58
2021/09/21 02:42:56;;;;;;;20.85;12.10;;;13.00;88.10;;;;;;4969863;28;20055;-60
2021/09/21 02:45:23;;;;;;;19.05;12.63;;;13.00;88.00;;;;;;4964706;28;20039;-59
2021/09/21 02:47:50;;;;;;;19.60;12.82;;;12.90;88.00;;;;;;4979790;28;20058;-60
2021/09/21 02:50:29;;;;;;;19.70;12.68;;;12.90;88.00;;;;;;4976735;28;20065;-59
2021/09/21 02:52:58;;;;;;;19.73;10.63;;;12.90;88.20;;;;;;4981672;28;20050;-59
2021/09/21 02:55:25;;;;;;;18.58;11.38;;;12.80;88.00;;;;;;4970796;28;20051;-59
2021/09/21 02:57:51;;;;;;;20.08;12.25;;;12.70;88.00;;;;;;4980361;28;20081;-56
2021/09/21 03:00:23;;;;;;;20.52;11.45;;;12.70;88.30;;;;;;4978944;28;20091;-59
2021/09/21 03:02:50;;;;;;;22.50;12.88;;;12.70;88.40;;;;;;4967704;28;20038;-59
2021/09/21 03:05:22;;;;;;;19.25;11.48;;;12.60;88.30;;;;;;4981754;28;20441;-60
2021/09/21 03:07:58;;;;;;;21.83;9.98;;;12.70;88.20;;;;;;4981210;28;20062;-60
2021/09/21 03:10:38;;;;;;;17.02;10.40;;;12.60;87.90;;;;;;4981958;28;20047;-60
2021/09/21 03:18:40;;;;;;;25.65;12.38;;;12.50;87.90;;;;;;4984069;28;20054;-59
2021/09/21 03:21:07;;;;;;;21.60;11.52;;;12.50;88.20;;;;;;4973525;28;20050;-59
2021/09/21 03:23:33;;;;;;;19.52;12.00;;;12.50;88.40;;;;;;4969891;28;20048;-58
2021/09/21 03:26:00;;;;;;;20.60;10.93;;;12.50;88.40;;;;;;4986838;28;20062;-59
2021/09/21 03:28:27;;;;;;;15.18;10.13;;;12.50;88.10;;;;;;4990015;28;20055;-60
2021/09/21 03:30:54;;;;;;;23.15;12.70;;;12.50;88.40;;;;;;4985157;28;20035;-59
2021/09/21 03:33:21;;;;;;;25.83;12.90;;;12.50;88.40;;;;;;4980515;28;20046;-60
2021/09/21 03:35:49;;;;;;;20.00;11.32;;;12.40;88.40;;;;;;4991090;28;20130;-60
2021/09/21 03:38:16;;;;;;;18.45;10.63;;;12.40;88.10;;;;;;4986538;28;20142;-59
2021/09/21 03:40:43;;;;;;;15.57;9.00;;;12.40;87.80;;;;;;4988866;28;20050;-59
2021/09/21 03:43:10;;;;;;;15.02;9.68;;;12.30;87.60;;;;;;4985756;28;20102;-60
2021/09/21 03:45:36;;;;;;;14.02;9.68;;;12.30;87.60;;;;;;4966878;28;20043;-59
2021/09/21 03:48:05;;;;;;;15.45;9.27;;;12.30;87.50;;;;;;4974019;28;20102;-60
2021/09/21 03:50:32;;;;;;;19.67;10.30;;;12.30;87.80;;;;;;4982020;28;20055;-59
2021/09/21 03:52:59;;;;;;;15.82;9.73;;;12.20;87.60;;;;;;4984295;28;21090;-60
2021/09/21 03:55:25;;;;;;;14.63;9.48;;;12.20;87.70;;;;;;4969749;28;20051;-59
2021/09/21 03:57:52;;;;;;;18.33;10.38;;;12.20;87.80;;;;;;4974237;28;20086;-59
2021/09/21 04:00:41;;;;;;;18.45;9.18;;;12.20;87.70;;;;;;4980691;28;20109;-59
2021/09/21 04:03:09;;;;;;;17.10;9.07;;;12.20;87.70;;;;;;4974423;28;20106;-60
2021/09/21 04:05:36;;;;;;;14.88;8.38;;;12.10;87.70;;;;;;4983268;28;20083;-60
2021/09/21 04:08:03;;;;;;;16.73;10.52;;;12.10;87.80;;;;;;4981731;28;20046;-60
2021/09/21 04:10:30;;;;;;;17.08;10.52;;;12.10;88.10;;;;;;4971991;28;20046;-59
2021/09/21 04:12:57;;;;;;;17.15;11.32;;;12.10;88.30;;;;;;4980490;28;20061;-59
2021/09/21 04:15:23;;;;;;;20.40;10.95;;;12.10;89.20;;;;;;4976807;28;20054;-59
2021/09/21 04:17:50;;;;;;;24.75;11.88;;;12.10;88.80;;;;;;4956025;28;20070;-60
2021/09/21 04:20:17;;;;;;;19.08;11.30;;;12.10;88.80;;;;;;4973558;28;20046;-60
2021/09/21 04:22:44;;;;;;;17.95;11.25;;;12.20;88.90;;;;;;4970976;28;20117;-60
2021/09/21 04:25:11;;;;;;;22.13;12.98;;;12.30;89.00;;;;;;4972002;28;20138;-60
2021/09/21 04:27:38;;;;;;;17.48;10.80;;;12.20;89.10;;;;;;4970436;28;20528;-59
2021/09/21 04:30:06;;;;;;;19.85;11.63;;;12.30;89.20;;;;;;4969601;28;20083;-59
2021/09/21 04:32:32;;;;;;;19.75;11.35;;;12.40;89.20;;;;;;4969731;28;20078;-60
2021/09/21 04:35:01;;;;;;;18.50;11.80;;;12.40;89.10;;;;;;4954281;28;20055;-60
2021/09/21 04:37:27;;;;;;;19.00;12.02;;;12.40;89.10;;;;;;4971143;28;20557;-59
2021/09/21 04:39:54;;;;;;;21.95;11.73;;;12.40;89.20;;;;;;4969190;28;20078;-59
2021/09/21 04:42:22;;;;;;;19.60;12.65;;;12.50;89.30;;;;;;4971988;28;20470;-59
2021/09/21 04:44:49;;;;;;;19.38;11.35;;;12.50;89.20;;;;;;4970566;28;20047;-60
2021/09/21 04:47:15;;;;;;;22.08;12.07;;;12.60;89.20;;;;;;4971815;28;20046;-60
2021/09/21 04:49:42;;;;;;;18.13;11.57;;;12.60;89.00;;;;;;4966934;28;20058;-60
2021/09/21 04:52:09;;;;;;;19.75;11.73;;;12.60;89.00;;;;;;4961337;28;20142;-60
2021/09/21 04:54:36;;;;;;;25.27;12.30;;;12.60;89.00;;;;;;4966680;28;20051;-59
2021/09/21 04:57:02;;;;;;;17.73;11.77;;;12.60;89.00;;;;;;4970905;28;20075;-59
2021/09/21 04:59:30;;;;;;;19.38;12.80;;;12.60;89.10;;;;;;4967925;28;20047;-58
2021/09/21 05:01:57;;;;;;;20.58;11.75;;;12.70;89.00;;;;;;4970197;28;20129;-60
2021/09/21 05:04:24;;;;;;;28.63;13.80;;;12.70;89.10;;;;;;4962747;28;20066;-60
2021/09/21 05:06:51;;;;;;;19.98;11.50;;;12.70;89.10;;;;;;4968750;28;20062;-60
2021/09/21 05:09:18;;;;;;;20.67;12.05;;;12.70;89.20;;;;;;4967817;28;20047;-60
2021/09/21 05:11:45;;;;;;;22.38;13.00;;;12.70;89.20;;;;;;4966965;28;20051;-60
2021/09/21 05:14:12;;;;;;;22.13;12.88;;;12.80;89.20;;;;;;4953316;28;20110;-60
2021/09/21 05:16:39;;;;;;;21.67;11.38;;;12.80;89.20;;;;;;4967168;28;20058;-60
2021/09/21 05:19:11;;;;;;;18.77;11.57;;;12.80;89.20;;;;;;4952144;28;20105;-59
2021/09/21 05:21:39;;;;;;;19.17;12.70;;;12.80;89.30;;;;;;4969691;28;20051;-60
2021/09/21 05:24:06;;;;;;;22.23;14.48;;;12.80;89.20;;;;;;4968957;28;20418;-60
2021/09/21 05:26:33;;;;;;;20.00;13.05;;;12.90;89.30;;;;;;4969544;28;20415;-61
2021/09/21 05:29:00;;;;;;;21.70;13.73;;;12.90;89.40;;;;;;4969057;28;20051;-60
2021/09/21 05:31:27;;;;;;;19.23;12.25;;;12.90;89.30;;;;;;4966209;28;20047;-59
2021/09/21 05:33:54;;;;;;;21.80;13.65;;;12.90;89.30;;;;;;4970399;28;20102;-59
2021/09/21 05:36:20;;;;;;;26.38;14.50;;;13.00;89.40;;;;;;4974643;28;20101;-59
2021/09/21 05:38:47;;;;;;;26.35;13.48;;;13.00;89.30;;;;;;4973738;28;20059;-59
2021/09/21 05:41:16;;;;;;;24.83;14.50;;;13.10;89.30;;;;;;4973406;28;20050;-59
2021/09/21 05:43:42;;;;;;;23.35;14.20;;;13.10;89.30;;;;;;4977264;28;20102;-59
2021/09/21 05:46:09;;;;;;;24.05;13.95;;;13.10;89.40;;;;;;4976393;28;20046;-59
2021/09/21 05:48:36;;;;;;;29.90;14.77;;;13.10;89.40;;;;;;4967017;28;20102;-59
2021/09/21 05:51:03;;;;;;;22.73;13.68;;;13.10;89.60;;;;;;4986722;28;20043;-62
2021/09/21 05:53:29;;;;;;;25.10;14.15;;;13.10;89.70;;;;;;4965540;28;20054;-59
2021/09/21 05:55:56;;;;;;;24.25;15.02;;;13.20;89.70;;;;;;4977986;28;20043;-60
2021/09/21 05:58:23;;;;;;;20.30;13.45;;;13.30;89.80;;;;;;4973180;28;20054;-63
2021/09/21 06:00:53;;;;;;;24.40;14.05;;;13.20;89.70;;;;;;4975367;28;20054;-60
2021/09/21 06:03:20;;;;;;;26.13;15.00;;;13.30;89.80;;;;;;4969050;28;20478;-60
2021/09/21 06:05:48;;;;;;;25.25;14.43;;;13.30;89.90;;;;;;4973774;28;20047;-60
2021/09/21 06:08:15;;;;;;;30.85;14.73;;;13.40;89.90;;;;;;4967046;28;20047;-60
2021/09/21 06:10:42;;;;;;;26.67;15.65;;;13.40;89.80;;;;;;4969054;28;20047;-61
2021/09/21 06:13:09;;;;;;;30.52;16.67;;;13.50;89.80;;;;;;4967770;28;20109;-61
2021/09/21 06:15:35;;;;;;;25.13;14.77;;;13.50;90.00;;;;;;4969539;28;20047;-60
2021/09/21 06:18:02;;;;;;;32.35;16.30;;;13.50;90.00;;;;;;4965720;28;20268;-61
2021/09/21 06:20:29;;;;;;;28.77;16.20;;;13.50;90.10;;;;;;4986526;28;20054;-61
2021/09/21 06:22:56;;;;;;;38.53;17.92;;;13.60;90.10;;;;;;4991875;28;20057;-61
2021/09/21 06:25:23;;;;;;;30.90;15.82;;;13.70;90.20;;;;;;4978971;28;20107;-60
2021/09/21 06:27:49;;;;;;;40.45;18.48;;;13.70;90.10;;;;;;4975182;28;20106;-60
2021/09/21 06:30:16;;;;;;;27.63;15.95;;;13.80;90.10;;;;;;4952679;28;20063;-59
2021/09/21 06:32:43;;;;;;;29.50;16.10;;;13.80;90.10;;;;;;4968574;28;20104;-60
2021/09/21 06:35:10;;;;;;;29.92;15.68;;;13.80;90.10;;;;;;4965647;28;20069;-60
2021/09/21 06:37:37;;;;;;;28.35;14.82;;;13.80;90.10;;;;;;4980321;28;20093;-59
2021/09/21 06:40:05;;;;;;;36.22;14.52;;;13.80;90.10;;;;;;4956373;28;20082;-59
2021/09/21 06:42:33;;;;;;;27.35;15.38;;;13.90;90.10;;;;;;4964564;28;20474;-58
2021/09/21 06:45:05;;;;;;;25.90;15.13;;;14.00;90.10;;;;;;4966180;28;20114;-57
2021/09/21 06:47:32;;;;;;;22.90;14.07;;;14.00;90.20;;;;;;4941431;28;20455;-57
2021/09/21 06:49:59;;;;;;;34.05;15.23;;;14.00;90.20;;;;;;4967152;28;20055;-58
2021/09/21 06:52:26;;;;;;;33.08;16.20;;;14.10;90.10;;;;;;4950122;28;20121;-60
2021/09/21 06:54:53;;;;;;;24.42;14.93;;;14.10;90.10;;;;;;4949727;28;20058;-55
2021/09/21 06:57:19;;;;;;;40.50;16.38;;;14.20;90.10;;;;;;4966528;28;20070;-56
2021/09/21 06:59:46;;;;;;;33.75;16.45;;;14.30;90.10;;;;;;4970293;28;20078;-57
2021/09/21 07:02:13;;;;;;;30.92;14.57;;;14.30;90.00;;;;;;4965832;28;20071;-59
2021/09/21 07:04:40;;;;;;;25.38;14.88;;;14.40;90.00;;;;;;4955604;28;20141;-58
2021/09/21 07:07:07;;;;;;;30.88;15.95;;;14.30;89.90;;;;;;4967877;28;20046;-60
2021/09/21 07:09:34;;;;;;;24.58;13.95;;;14.20;90.00;;;;;;4959818;28;20050;-58
2021/09/21 07:12:01;;;;;;;20.23;13.43;;;14.30;89.90;;;;;;4967853;28;20070;-58
2021/09/21 07:14:28;;;;;;;23.98;13.68;;;14.30;89.60;;;;;;4965581;28;20055;-61
2021/09/21 07:16:55;;;;;;;24.27;14.88;;;14.30;89.60;;;;;;4949946;28;20101;-58
2021/09/21 07:19:22;;;;;;;24.45;15.18;;;14.30;89.70;;;;;;4960340;28;20070;-58
2021/09/21 07:21:48;;;;;;;24.52;13.90;;;14.20;89.80;;;;;;4964642;28;20135;-62
2021/09/21 07:24:16;;;;;;;23.08;14.45;;;14.20;90.00;;;;;;4948953;28;20508;-56
2021/09/21 07:26:44;;;;;;;19.58;13.10;;;14.20;90.00;;;;;;4950339;28;20508;-60
2021/09/21 07:29:10;;;;;;;21.63;13.80;;;14.30;89.80;;;;;;4956153;28;20079;-58
2021/09/21 07:31:37;;;;;;;30.75;15.77;;;14.30;89.80;;;;;;4931646;29;20253;-59
2021/09/21 07:34:04;;;;;;;24.05;15.25;;;14.30;89.80;;;;;;4957180;28;20058;-59
2021/09/21 07:36:31;;;;;;;30.80;14.70;;;14.30;89.70;;;;;;4982219;28;20130;-59
2021/09/21 07:38:58;;;;;;;24.20;14.35;;;14.30;89.70;;;;;;4967359;28;20057;-59
2021/09/21 07:41:25;;;;;;;23.90;13.27;;;14.40;90.00;;;;;;4974564;28;20082;-58
2021/09/21 07:43:52;;;;;;;23.58;15.27;;;14.50;89.60;;;;;;4969320;28;20134;-57
2021/09/21 07:46:18;;;;;;;21.92;13.65;;;14.40;89.50;;;;;;4965123;28;20061;-58
2021/09/21 07:48:45;;;;;;;23.63;15.63;;;14.50;89.60;;;;;;4947844;28;20122;-56
2021/09/21 07:51:12;;;;;;;23.00;13.52;;;14.50;89.40;;;;;;4958588;28;20038;-58
2021/09/21 07:53:39;;;;;;;21.05;12.45;;;14.50;89.50;;;;;;4974539;28;20466;-58
2021/09/21 07:56:06;;;;;;;21.00;13.18;;;14.50;89.40;;;;;;4955861;28;20139;-58
2021/09/21 07:58:48;;;;;;;18.88;13.18;;;14.50;89.00;;;;;;4959945;28;20070;-58
2021/09/21 08:01:14;;;;;;;20.50;12.95;;;14.60;88.60;;;;;;4958418;28;20082;-58
2021/09/21 08:03:42;;;;;;;20.45;13.20;;;14.60;88.70;;;;;;4965831;28;20066;-60
2021/09/21 08:06:10;;;;;;;22.67;12.30;;;14.60;88.70;;;;;;4962931;28;20058;-57
2021/09/21 08:08:39;;;;;;;22.80;12.68;;;14.70;88.60;;;;;;4965368;28;20050;-57
2021/09/21 08:11:08;;;;;;;26.15;12.52;;;14.70;88.20;;;;;;4965159;28;20051;-59
2021/09/21 08:13:35;;;;;;;23.08;13.57;;;14.80;88.10;;;;;;4973413;28;20609;-59
2021/09/21 08:16:02;;;;;;;24.58;12.88;;;14.80;87.80;;;;;;4947292;28;20081;-59
2021/09/21 08:18:29;;;;;;;18.67;12.63;;;14.80;88.30;;;;;;4966261;28;20085;-59
2021/09/21 08:20:55;;;;;;;21.30;11.95;;;14.90;87.70;;;;;;4956379;28;20075;-60
2021/09/21 08:23:22;;;;;;;20.35;11.98;;;14.90;87.30;;;;;;4963757;28;20070;-57
2021/09/21 08:25:52;;;;;;;19.95;11.95;;;14.90;87.30;;;;;;4967291;28;20138;-58
2021/09/21 08:28:18;;;;;;;20.67;11.40;;;15.00;86.90;;;;;;4966595;28;20590;-57
2021/09/21 08:30:45;;;;;;;16.27;10.40;;;15.00;86.60;;;;;;4961536;28;20085;-57
2021/09/21 08:33:12;;;;;;;25.15;11.63;;;15.00;86.70;;;;;;4946981;28;20078;-58
2021/09/21 08:35:39;;;;;;;19.65;11.55;;;15.00;86.30;;;;;;4967965;28;20054;-58
2021/09/21 08:38:06;;;;;;;15.75;10.35;;;15.00;86.10;;;;;;4966177;28;20459;-58
2021/09/21 08:40:32;;;;;;;24.42;11.35;;;15.10;86.10;;;;;;4968306;28;20122;-58
2021/09/21 08:42:59;;;;;;;18.45;11.43;;;15.20;86.20;;;;;;4963064;28;20055;-59
2021/09/21 08:45:26;;;;;;;18.88;10.70;;;15.20;86.00;;;;;;4969250;28;20086;-59
2021/09/21 08:47:54;;;;;;;17.00;10.43;;;15.30;85.90;;;;;;4961644;28;20519;-59
2021/09/21 08:50:20;;;;;;;19.75;10.75;;;15.40;85.40;;;;;;4952437;28;20042;-59
2021/09/21 08:52:47;;;;;;;14.93;9.25;;;15.50;85.00;;;;;;4964337;28;20130;-59
2021/09/21 08:55:14;;;;;;;19.23;9.70;;;15.50;84.60;;;;;;4969100;28;20506;-60
2021/09/21 08:57:41;;;;;;;21.63;9.40;;;15.60;84.90;;;;;;4964842;28;20051;-58
2021/09/21 09:00:28;;;;;;;14.98;9.13;;;15.60;84.50;;;;;;4969177;28;20059;-60
2021/09/21 09:03:05;;;;;;;19.30;9.15;;;15.70;84.10;;;;;;4954492;28;20514;-59
2021/09/21 09:05:53;;;;;;;18.08;8.88;;;15.90;81.10;;;;;;4964145;28;20141;-58
2021/09/21 09:08:34;;;;;;;16.50;8.13;;;16.10;78.70;;;;;;4965436;28;20095;-59
2021/09/21 09:11:13;;;;;;;22.42;10.07;;;16.20;80.40;;;;;;4967185;28;20398;-58
2021/09/21 09:13:40;;;;;;;12.57;8.15;;;16.40;79.50;;;;;;4957225;28;20102;-58
2021/09/21 09:16:14;;;;;;;15.65;8.65;;;16.50;81.30;;;;;;4967731;28;20089;-60
2021/09/21 09:18:43;;;;;;;15.07;8.15;;;16.60;80.60;;;;;;4966968;28;20063;-58
2021/09/21 09:21:10;;;;;;;12.75;7.82;;;16.90;81.10;;;;;;4968820;28;20065;-57
2021/09/21 09:23:50;;;;;;;14.88;8.40;;;17.10;79.70;;;;;;4961565;28;20497;-59
2021/09/21 09:26:22;;;;;;;13.98;7.50;;;17.30;76.90;;;;;;4950749;28;20051;-58
2021/09/21 09:28:49;;;;;;;15.07;8.15;;;17.50;78.70;;;;;;4966679;28;20125;-60
2021/09/21 09:31:27;;;;;;;13.27;7.63;;;17.70;78.30;;;;;;4967423;28;20351;-59
2021/09/21 09:34:12;;;;;;;17.60;8.60;;;17.90;75.60;;;;;;4964236;28;20042;-58
2021/09/21 09:36:58;;;;;;;16.52;7.68;;;17.80;73.90;;;;;;4970432;28;20406;-58
2021/09/21 09:39:28;;;;;;;12.68;7.53;;;17.60;75.50;;;;;;4964469;28;20074;-59
2021/09/21 09:41:56;;;;;;;10.55;6.13;;;17.40;76.20;;;;;;4968605;28;20645;-59
2021/09/21 09:44:24;;;;;;;12.40;5.25;;;17.30;77.10;;;;;;4964495;28;20130;-59
2021/09/21 09:46:55;;;;;;;9.02;5.32;;;17.20;77.20;;;;;;4968909;28;20082;-59
2021/09/21 09:49:24;;;;;;;9.70;5.10;;;17.20;77.40;;;;;;4964410;28;20455;-58
2021/09/21 09:51:52;;;;;;;16.70;4.88;;;17.30;76.90;;;;;;4968676;28;20097;-58
2021/09/21 09:54:19;;;;;;;8.98;4.25;;;17.30;75.10;;;;;;4965033;28;20138;-57
2021/09/21 09:56:46;;;;;;;8.63;3.88;;;17.30;75.50;;;;;;4967893;28;20518;-57
2021/09/21 09:59:14;;;;;;;13.23;3.85;;;17.40;74.40;;;;;;4966073;28;20043;-57
2021/09/21 10:01:42;;;;;;;11.25;4.07;;;17.30;74.90;;;;;;4946455;28;20573;-58
2021/09/21 10:04:12;;;;;;;10.95;5.30;;;17.30;73.10;;;;;;4965350;28;20047;-58
2021/09/21 10:06:40;;;;;;;6.88;4.10;;;17.20;73.70;;;;;;4968354;28;20055;-58
2021/09/21 10:09:07;;;;;;;12.10;4.22;;;17.20;74.50;;;;;;4948737;28;20121;-58
2021/09/21 10:12:08;;;;;;;9.02;3.53;;;17.20;73.90;;;;;;4943985;28;20046;-59
2021/09/21 10:14:34;;;;;;;8.43;4.20;;;17.30;70.20;;;;;;4957945;28;20047;-58
2021/09/21 10:17:05;;;;;;;9.68;4.30;;;17.30;73.80;;;;;;4963614;28;20061;-59
2021/09/21 10:19:33;;;;;;;6.78;3.50;;;17.40;73.20;;;;;;4963709;28;20138;-57
2021/09/21 10:22:00;;;;;;;9.38;3.47;;;17.40;71.80;;;;;;4963507;28;20055;-59
2021/09/21 10:24:31;;;;;;;8.27;3.45;;;17.50;72.80;;;;;;4966066;28;20155;-58
2021/09/21 10:27:07;;;;;;;9.23;4.05;;;17.50;69.80;;;;;;4950760;28;20442;-58
2021/09/21 10:29:35;;;;;;;10.23;4.88;;;17.50;69.10;;;;;;4959464;28;20513;-60
2021/09/21 10:32:08;;;;;;;7.30;3.30;;;17.50;72.10;;;;;;4966113;28;20043;-58
2021/09/21 10:34:39;;;;;;;;;;;17.50;72.10;;;;;;4937598;29;20044;-60
2021/09/21 10:37:06;;;;;;;6.28;3.08;;;17.50;68.70;;;;;;4960828;28;19921;-58
2021/09/21 10:39:33;;;;;;;8.88;3.60;;;17.60;71.60;;;;;;4948523;28;20075;-58
2021/09/21 10:42:02;;;;;;;7.93;2.83;;;17.60;71.70;;;;;;4959431;28;20447;-57
2021/09/21 10:44:29;;;;;;;8.45;3.08;;;17.60;69.30;;;;;;4965702;28;20054;-58
2021/09/21 10:47:05;;;;;;;5.85;3.50;;;17.70;68.60;;;;;;4961854;28;20047;-58
2021/09/21 10:49:36;;;;;;;8.52;3.97;;;17.60;68.60;;;;;;4965797;28;20079;-58
2021/09/21 10:52:07;;;;;;;8.02;3.50;;;17.70;69.40;;;;;;4946881;28;20054;-57
2021/09/21 10:54:50;;;;;;;15.63;4.95;;;17.70;70.60;;;;;;4965197;28;20098;-58
2021/09/21 10:57:30;;;;;;;9.38;3.92;;;17.80;68.60;;;;;;4963229;28;20527;-58
2021/09/21 11:00:00;;;;;;;7.35;4.00;;;17.80;67.30;;;;;;4958188;28;20588;-57
2021/09/21 11:02:36;;;;;;;10.90;4.65;;;17.90;69.90;;;;;;4949884;28;20064;-57
2021/09/21 11:05:05;;;;;;;6.22;3.33;;;18.00;68.90;;;;;;4967434;28;20129;-58
2021/09/21 11:07:35;;;;;;;8.90;4.35;;;18.20;70.10;;;;;;4954881;28;20051;-57
2021/09/21 11:10:02;;;;;;;14.05;5.43;;;18.30;68.10;;;;;;4949137;28;20158;-56
2021/09/21 11:12:28;;;;;;;10.50;4.80;;;18.30;68.50;;;;;;4928949;28;20106;-58
2021/09/21 11:14:57;;;;;;;9.68;4.97;;;18.30;67.70;;;;;;4964864;28;20051;-59
2021/09/21 11:17:26;;;;;;;12.70;4.95;;;18.30;68.90;;;;;;4955540;28;20082;-60
2021/09/21 11:19:54;;;;;;;10.10;5.10;;;18.30;69.20;;;;;;4963475;28;20510;-59
2021/09/21 11:22:26;;;;;;;9.35;4.07;;;18.30;69.50;;;;;;4959728;28;20047;-58
2021/09/21 11:25:01;;;;;;;7.75;4.63;;;18.40;68.00;;;;;;4965213;28;20055;-58
2021/09/21 11:27:27;;;;;;;14.38;5.45;;;18.40;67.50;;;;;;4966059;28;20055;-58
2021/09/21 11:30:03;;;;;;;11.20;5.50;;;18.50;69.30;;;;;;4965646;28;20446;-58
2021/09/21 11:32:30;;;;;;;12.73;6.07;;;18.60;67.00;;;;;;4966001;28;20301;-58
2021/09/21 11:35:03;;;;;;;7.13;5.00;;;18.60;66.60;;;;;;4949522;28;20537;-58
2021/09/21 11:37:30;;;;;;;11.35;6.18;;;18.60;66.50;;;;;;4962577;28;20054;-57
2021/09/21 11:39:56;;;;;;;9.25;4.68;;;18.60;66.40;;;;;;4948520;28;20070;-58
2021/09/21 11:42:29;;;;;;;9.63;5.88;;;18.70;68.40;;;;;;4962810;28;20194;-59
2021/09/21 11:45:07;;;;;;;18.23;5.83;;;18.70;68.90;;;;;;4961068;28;20074;-58
2021/09/21 11:47:42;;;;;;;6.75;4.57;;;18.80;67.00;;;;;;4950099;28;20081;-57
2021/09/21 11:50:13;;;;;;;10.85;4.85;;;19.00;66.30;;;;;;4966378;28;20085;-59
2021/09/21 11:52:41;;;;;;;24.23;5.53;;;19.10;64.50;;;;;;4963295;28;20043;-59
2021/09/21 11:55:12;;;;;;;8.98;5.13;;;19.10;67.20;;;;;;4966974;28;20494;-59
2021/09/21 11:57:39;;;;;;;16.80;6.57;;;19.10;66.60;;;;;;4968738;28;20501;-58
2021/09/21 12:00:06;;;;;;;11.85;5.95;;;19.20;67.30;;;;;;4953561;28;20145;-59
2021/09/21 12:02:34;;;;;;;15.85;6.13;;;19.30;67.10;;;;;;4953854;28;20050;-59
2021/09/21 12:05:01;;;;;;;15.80;5.78;;;19.30;66.70;;;;;;4968784;28;20054;-59
2021/09/21 12:07:28;;;;;;;13.55;5.88;;;19.40;66.40;;;;;;4970006;28;21008;-58
2021/09/21 12:09:55;;;;;;;8.02;5.22;;;19.30;65.90;;;;;;4951723;28;20138;-58
2021/09/21 12:12:22;;;;;;;14.02;5.53;;;19.30;66.10;;;;;;4970549;28;20078;-60
2021/09/21 12:14:57;;;;;;;12.15;5.35;;;19.40;65.80;;;;;;4967443;28;20192;-60
2021/09/21 12:17:25;;;;;;;12.18;4.72;;;19.40;62.50;;;;;;4970554;28;20443;-57
2021/09/21 12:20:01;;;;;;;12.48;4.90;;;19.50;65.70;;;;;;4966459;28;20299;-59
2021/09/21 12:22:28;;;;;;;11.45;4.30;;;19.60;62.40;;;;;;4970754;28;20238;-56
2021/09/21 12:25:08;;;;;;;9.93;3.85;;;19.60;65.20;;;;;;4967102;28;20070;-56
2021/09/21 12:27:36;;;;;;;6.30;3.92;;;19.50;62.20;;;;;;4969267;28;20117;-57
2021/09/21 12:30:07;;;;;;;8.15;3.75;;;19.50;65.30;;;;;;4962743;28;20462;-62
2021/09/21 12:32:34;;;;;;;8.25;3.65;;;19.50;63.90;;;;;;4970551;28;20131;-58
2021/09/21 12:35:07;;;;;;;8.02;3.28;;;19.50;64.50;;;;;;4968794;28;20150;-59
2021/09/21 12:37:37;;;;;;;13.75;3.55;;;19.40;63.40;;;;;;4967666;28;20138;-59
2021/09/21 12:40:13;;;;;;;11.25;4.05;;;19.40;63.50;;;;;;4968761;28;20082;-59
2021/09/21 12:42:41;;;;;;;7.55;3.45;;;19.40;62.70;;;;;;4967810;28;20449;-59
2021/09/21 12:45:11;;;;;;;8.75;4.13;;;19.40;64.60;;;;;;4969373;28;20469;-58
2021/09/21 12:47:39;;;;;;;9.98;3.70;;;19.40;63.40;;;;;;4968015;28;20142;-59
2021/09/21 12:50:13;;;;;;;8.85;3.55;;;19.40;64.40;;;;;;4963238;28;20071;-59
2021/09/21 12:52:53;;;;;;;5.20;3.03;;;19.60;62.10;;;;;;4967736;28;20058;-60
2021/09/21 12:55:30;;;;;;;7.97;3.13;;;19.70;61.20;;;;;;4963782;28;20074;-60
2021/09/21 12:57:57;;;;;;;10.50;2.85;;;19.80;60.60;;;;;;4968371;28;20050;-59
2021/09/21 13:00:24;;;;;;;7.68;3.17;;;20.00;63.40;;;;;;4967380;28;20138;-58
2021/09/21 13:02:51;;;;;;;7.20;4.13;;;20.10;63.50;;;;;;4969496;28;20552;-58
2021/09/21 13:05:22;;;;;;;10.13;3.00;;;20.20;62.80;;;;;;4965024;28;20043;-58
2021/09/21 13:07:48;;;;;;;7.38;3.45;;;20.30;62.30;;;;;;4969042;28;20039;-58
2021/09/21 13:10:15;;;;;;;9.35;4.53;;;20.30;62.00;;;;;;4965094;28;20078;-59
2021/09/21 13:12:42;;;;;;;6.35;2.65;;;20.40;61.70;;;;;;4963009;28;20078;-58
2021/09/21 13:15:09;;;;;;;3.45;1.80;;;20.40;60.90;;;;;;4967168;28;20047;-57
2021/09/21 13:17:36;;;;;;;6.93;2.60;;;20.30;60.80;;;;;;4968044;28;20078;-58
2021/09/21 13:20:03;;;;;;;9.15;3.28;;;20.30;60.80;;;;;;4966024;28;20082;-59